createdAt,value
2018-03-29T00:02:07.063Z,10.50
2018-03-29T00:04:34.810Z,10.50
2018-03-29T00:07:02.563Z,10.50
2018-03-29T00:09:30.295Z,10.50
2018-03-29T00:11:58.909Z,10.50
2018-03-29T00:14:26.738Z,10.50
2018-03-29T00:16:55.239Z,10.40
2018-03-29T00:19:23.030Z,10.30
2018-03-29T00:21:50.806Z,10.20
2018-03-29T00:24:18.611Z,10.20
2018-03-29T00:26:46.450Z,10.20
2018-03-29T00:29:14.199Z,10.20
2018-03-29T00:31:42.083Z,10.10
2018-03-29T00:34:09.962Z,10.10
2018-03-29T00:36:37.744Z,10.10
2018-03-29T00:39:05.622Z,10.10
2018-03-29T00:41:34.290Z,10.10
2018-03-29T00:44:02.075Z,10.10
2018-03-29T00:46:30.931Z,10.00
2018-03-29T00:48:58.684Z,10.00
2018-03-29T00:51:26.460Z,10.00
2018-03-29T00:53:54.215Z,10.10
2018-03-29T00:56:22.667Z,10.10
2018-03-29T00:58:50.499Z,10.10
2018-03-29T01:01:19.008Z,10.10
2018-03-29T01:03:46.818Z,10.10
2018-03-29T01:06:14.631Z,10.10
2018-03-29T01:08:42.387Z,10.00
2018-03-29T01:11:11.020Z,9.80
2018-03-29T01:13:38.889Z,9.80
2018-03-29T01:16:06.644Z,9.70
2018-03-29T01:18:34.899Z,9.70
2018-03-29T01:21:02.625Z,9.80
2018-03-29T01:23:31.251Z,9.90
2018-03-29T01:25:58.978Z,9.90
2018-03-29T01:28:27.471Z,9.90
2018-03-29T01:30:57.051Z,9.80
2018-03-29T01:33:24.958Z,9.80
2018-03-29T01:35:52.700Z,9.80
2018-03-29T01:38:21.400Z,9.60
2018-03-29T01:40:49.204Z,9.60
2018-03-29T01:43:16.988Z,9.50
2018-03-29T01:45:44.784Z,9.40
2018-03-29T01:48:13.345Z,9.40
2018-03-29T01:50:41.128Z,9.40
2018-03-29T01:53:09.806Z,9.20
2018-03-29T01:55:38.428Z,9.20
2018-03-29T01:58:06.305Z,9.20
2018-03-29T02:00:34.607Z,9.20
2018-03-29T02:03:02.448Z,9.10
2018-03-29T02:05:30.245Z,9.20
2018-03-29T02:07:58.156Z,9.00
2018-03-29T02:10:26.012Z,8.90
2018-03-29T02:12:54.581Z,8.80
2018-03-29T02:15:22.543Z,8.80
2018-03-29T02:17:50.425Z,8.90
2018-03-29T02:20:19.015Z,8.90
2018-03-29T02:22:47.701Z,8.90
2018-03-29T02:25:16.400Z,8.90
2018-03-29T02:27:44.232Z,8.90
2018-03-29T02:30:29.801Z,8.90
2018-03-29T02:32:57.593Z,8.90
2018-03-29T02:35:26.124Z,8.90
2018-03-29T02:37:53.871Z,8.90
2018-03-29T02:40:21.719Z,9.00
2018-03-29T02:42:50.230Z,8.90
2018-03-29T02:45:17.987Z,8.90
2018-03-29T02:47:45.823Z,8.90
2018-03-29T02:50:14.368Z,8.80
2018-03-29T02:52:42.228Z,8.70
2018-03-29T02:55:10.355Z,8.80
2018-03-29T02:57:38.887Z,8.90
2018-03-29T03:00:06.684Z,8.90
2018-03-29T03:02:35.204Z,8.80
2018-03-29T03:05:02.994Z,8.80
2018-03-29T03:07:30.708Z,8.80
2018-03-29T03:09:59.246Z,8.80
2018-03-29T03:12:26.978Z,8.80
2018-03-29T03:14:54.729Z,8.80
2018-03-29T03:17:22.557Z,8.80
2018-03-29T03:19:50.381Z,8.80
2018-03-29T03:22:18.263Z,8.80
2018-03-29T03:24:45.976Z,8.60
2018-03-29T03:27:14.458Z,8.40
2018-03-29T03:29:43.000Z,8.30
2018-03-29T03:32:10.983Z,8.30
2018-03-29T03:34:38.999Z,8.30
2018-03-29T03:37:06.961Z,8.40
2018-03-29T03:39:35.716Z,8.40
2018-03-29T03:42:04.284Z,8.40
2018-03-29T03:44:32.252Z,8.40
2018-03-29T03:47:00.225Z,8.40
2018-03-29T03:49:28.021Z,8.30
2018-03-29T03:51:56.575Z,8.40
2018-03-29T03:54:24.534Z,8.40
2018-03-29T03:56:52.408Z,8.40
2018-03-29T03:59:20.124Z,8.30
2018-03-29T04:01:47.970Z,8.30
2018-03-29T04:04:16.484Z,8.20
2018-03-29T04:06:44.219Z,8.10
2018-03-29T04:09:12.841Z,8.10
2018-03-29T04:11:40.566Z,8.00
2018-03-29T04:14:09.097Z,7.90
2018-03-29T04:16:36.952Z,7.90
2018-03-29T04:19:04.723Z,7.90
2018-03-29T04:21:32.443Z,7.90
2018-03-29T04:24:01.006Z,8.00
2018-03-29T04:26:28.762Z,7.90
2018-03-29T04:28:56.486Z,7.90
2018-03-29T04:31:24.327Z,7.90
2018-03-29T04:33:52.903Z,8.00
2018-03-29T04:36:21.464Z,8.10
2018-03-29T04:38:49.300Z,8.00
2018-03-29T04:41:17.086Z,8.10
2018-03-29T04:43:44.848Z,8.10
2018-03-29T04:46:12.698Z,8.10
2018-03-29T04:48:40.432Z,8.10
2018-03-29T04:51:08.227Z,8.20
2018-03-29T04:53:36.065Z,8.20
2018-03-29T04:56:03.812Z,8.20
2018-03-29T04:58:32.330Z,8.20
2018-03-29T05:01:00.155Z,8.20
2018-03-29T05:03:28.660Z,8.20
2018-03-29T05:05:56.398Z,8.20
2018-03-29T05:08:24.954Z,8.10
2018-03-29T05:10:52.807Z,8.10
2018-03-29T05:13:20.639Z,8.00
2018-03-29T05:15:48.490Z,7.90
2018-03-29T05:18:17.099Z,8.00
2018-03-29T05:20:44.837Z,8.00
2018-03-29T05:23:13.428Z,8.10
2018-03-29T05:25:41.272Z,8.10
2018-03-29T05:28:09.080Z,8.10
2018-03-29T05:30:36.991Z,8.00
2018-03-29T05:33:04.718Z,8.10
2018-03-29T05:35:32.513Z,8.00
2018-03-29T05:38:00.312Z,8.00
2018-03-29T05:40:28.815Z,8.10
2018-03-29T05:42:56.669Z,8.10
2018-03-29T05:45:24.563Z,8.10
2018-03-29T05:47:52.378Z,8.10
2018-03-29T05:50:20.220Z,8.10
2018-03-29T05:52:48.051Z,8.10
2018-03-29T05:55:15.938Z,8.20
2018-03-29T05:57:43.835Z,8.30
2018-03-29T06:00:12.610Z,8.20
2018-03-29T06:02:40.554Z,8.30
2018-03-29T06:05:08.464Z,8.30
2018-03-29T06:07:38.054Z,8.30
2018-03-29T06:10:05.895Z,8.30
2018-03-29T06:12:33.639Z,8.30
2018-03-29T06:15:21.204Z,8.40
2018-03-29T06:17:54.599Z,8.40
2018-03-29T06:20:22.476Z,8.40
2018-03-29T06:22:50.299Z,8.50
2018-03-29T06:25:18.211Z,8.50
2018-03-29T06:27:46.089Z,8.50
2018-03-29T06:30:13.985Z,8.50
2018-03-29T06:32:41.751Z,8.50
2018-03-29T06:35:10.358Z,8.40
2018-03-29T06:37:38.140Z,8.40
2018-03-29T06:40:05.899Z,8.40
2018-03-29T06:42:33.680Z,8.30
2018-03-29T06:45:02.390Z,8.30
2018-03-29T06:47:30.225Z,8.40
2018-03-29T06:49:58.126Z,8.50
2018-03-29T06:52:25.928Z,8.60
2018-03-29T06:54:53.851Z,8.60
2018-03-29T06:57:21.725Z,8.70
2018-03-29T06:59:49.594Z,8.70
2018-03-29T07:02:17.411Z,8.80
2018-03-29T07:04:45.280Z,8.80
2018-03-29T07:07:13.123Z,8.90
2018-03-29T07:09:41.621Z,9.00
2018-03-29T07:12:09.441Z,8.90
2018-03-29T07:14:37.201Z,8.90
2018-03-29T07:17:05.017Z,9.00
2018-03-29T07:19:32.811Z,9.00
2018-03-29T07:22:00.541Z,9.10
2018-03-29T07:24:28.376Z,9.00
2018-03-29T07:26:57.018Z,9.00
2018-03-29T07:29:24.859Z,9.00
2018-03-29T07:31:52.650Z,8.90
2018-03-29T07:34:20.468Z,9.00
2018-03-29T07:36:49.008Z,9.00
2018-03-29T07:39:16.983Z,9.00
2018-03-29T07:41:44.860Z,9.10
2018-03-29T07:44:12.646Z,9.10
2018-03-29T07:46:41.211Z,9.10
2018-03-29T07:49:09.119Z,9.10
2018-03-29T07:51:37.006Z,9.20
2018-03-29T07:54:04.843Z,9.30
2018-03-29T07:56:33.400Z,9.50
2018-03-29T07:59:01.223Z,9.40
2018-03-29T08:01:29.045Z,9.50
2018-03-29T08:03:58.023Z,9.50
2018-03-29T08:06:25.877Z,9.50
2018-03-29T08:08:53.840Z,9.50
2018-03-29T08:11:21.877Z,9.60
2018-03-29T08:13:50.123Z,9.60
2018-03-29T08:16:18.783Z,9.70
2018-03-29T08:18:46.741Z,9.70
2018-03-29T08:21:14.698Z,9.80
2018-03-29T08:23:42.643Z,9.80
2018-03-29T08:26:10.553Z,9.90
2018-03-29T08:28:38.448Z,10.10
2018-03-29T08:31:07.292Z,10.30
2018-03-29T08:33:35.169Z,10.30
2018-03-29T08:36:03.040Z,10.40
2018-03-29T08:38:31.015Z,10.50
2018-03-29T08:40:58.941Z,10.50
2018-03-29T08:43:26.944Z,10.60
2018-03-29T08:45:55.118Z,10.60
2018-03-29T08:48:23.094Z,10.70
2018-03-29T08:50:51.059Z,10.70
2018-03-29T08:53:18.867Z,10.60
2018-03-29T08:55:47.619Z,10.50
2018-03-29T08:58:15.684Z,10.50
2018-03-29T09:00:43.487Z,10.40
2018-03-29T09:03:12.256Z,10.30
2018-03-29T09:05:40.187Z,10.30
2018-03-29T09:08:08.081Z,10.30
2018-03-29T09:10:36.883Z,10.40
2018-03-29T09:13:04.849Z,10.30
2018-03-29T09:15:33.681Z,10.30
2018-03-29T09:18:01.586Z,10.30
2018-03-29T09:20:29.403Z,10.30
2018-03-29T09:22:57.968Z,10.30
2018-03-29T09:25:27.142Z,10.30
2018-03-29T09:27:55.114Z,10.20
2018-03-29T09:30:23.149Z,10.20
2018-03-29T09:32:51.008Z,10.10
2018-03-29T09:35:19.010Z,10.10
2018-03-29T09:37:46.880Z,10.10
2018-03-29T09:40:14.849Z,10.10
2018-03-29T09:42:44.320Z,10.30
2018-03-29T09:45:12.149Z,10.30
2018-03-29T09:47:40.895Z,10.30
2018-03-29T09:50:08.778Z,10.30
2018-03-29T09:52:36.546Z,10.40
2018-03-29T09:55:04.463Z,10.40
2018-03-29T09:57:32.216Z,10.50
2018-03-29T10:00:00.016Z,10.50
2018-03-29T10:02:31.853Z,10.60
2018-03-29T10:05:03.658Z,10.60
2018-03-29T10:07:34.916Z,10.50
2018-03-29T10:10:02.915Z,10.50
2018-03-29T10:12:30.956Z,10.50
2018-03-29T10:15:00.447Z,10.60
2018-03-29T10:17:28.518Z,10.60
2018-03-29T10:19:56.451Z,10.60
2018-03-29T10:22:24.685Z,10.60
2018-03-29T10:24:52.633Z,10.70
2018-03-29T10:27:20.683Z,10.70
2018-03-29T10:29:48.843Z,10.70
2018-03-29T10:32:16.779Z,10.70
2018-03-29T10:34:45.534Z,10.70
2018-03-29T10:37:13.912Z,10.70
2018-03-29T10:39:41.800Z,10.80
2018-03-29T10:42:09.824Z,10.70
2018-03-29T10:44:37.770Z,10.70
2018-03-29T10:47:05.547Z,10.80
2018-03-29T10:49:33.448Z,10.80
2018-03-29T10:52:01.580Z,10.80
2018-03-29T10:54:29.547Z,10.80
2018-03-29T10:56:57.562Z,10.80
2018-03-29T10:59:25.631Z,10.90
2018-03-29T11:01:53.515Z,10.90
2018-03-29T11:04:21.600Z,11.10
2018-03-29T11:06:49.851Z,11.10
2018-03-29T11:09:17.715Z,11.10
2018-03-29T11:11:45.740Z,11.10
2018-03-29T11:14:13.916Z,11.20
2018-03-29T11:16:42.032Z,11.30
2018-03-29T11:19:09.900Z,11.30
2018-03-29T11:21:37.774Z,11.40
2018-03-29T11:24:05.633Z,11.40
2018-03-29T11:26:33.712Z,11.50
2018-03-29T11:29:01.645Z,11.50
2018-03-29T11:31:29.545Z,11.50
2018-03-29T11:33:57.714Z,11.50
2018-03-29T11:36:25.683Z,11.50
2018-03-29T11:38:53.781Z,11.40
2018-03-29T11:41:22.649Z,11.30
2018-03-29T11:43:50.819Z,11.30
2018-03-29T11:46:19.651Z,11.40
2018-03-29T11:48:48.233Z,11.40
2018-03-29T11:51:17.137Z,11.40
2018-03-29T11:53:45.182Z,11.40
2018-03-29T11:56:13.840Z,11.40
2018-03-29T11:58:42.219Z,11.40
2018-03-29T12:01:10.086Z,11.40
2018-03-29T12:03:37.840Z,11.40
2018-03-29T12:06:05.819Z,11.40
2018-03-29T12:08:33.686Z,11.50
2018-03-29T12:11:01.554Z,11.50
2018-03-29T12:13:29.820Z,11.60
2018-03-29T12:15:57.674Z,11.70
2018-03-29T12:18:25.501Z,11.80
2018-03-29T12:20:54.085Z,11.90
2018-03-29T12:23:22.669Z,11.90
2018-03-29T12:25:51.297Z,11.90
2018-03-29T12:28:19.134Z,11.90
2018-03-29T12:30:46.921Z,12.00
2018-03-29T12:33:14.764Z,11.90
2018-03-29T12:35:42.668Z,11.80
2018-03-29T12:38:10.523Z,11.70
2018-03-29T12:40:38.285Z,11.60
2018-03-29T12:43:06.085Z,11.60
2018-03-29T12:45:33.898Z,11.70
2018-03-29T12:48:01.742Z,11.70
2018-03-29T12:50:30.365Z,12.00
2018-03-29T12:52:58.264Z,12.00
2018-03-29T12:55:38.006Z,12.10
2018-03-29T12:58:12.836Z,12.10
2018-03-29T13:00:40.671Z,12.20
2018-03-29T13:03:08.426Z,12.10
2018-03-29T13:05:36.240Z,12.10
2018-03-29T13:08:04.409Z,12.00
2018-03-29T13:10:32.188Z,12.00
2018-03-29T13:13:00.803Z,11.90
2018-03-29T13:15:29.569Z,11.90
2018-03-29T13:17:58.533Z,11.80
2018-03-29T13:20:26.532Z,11.80
2018-03-29T13:22:55.478Z,11.80
2018-03-29T13:25:23.376Z,11.80
2018-03-29T13:27:51.182Z,11.80
2018-03-29T13:30:19.213Z,11.80
2018-03-29T13:32:47.169Z,11.70
2018-03-29T13:35:15.287Z,11.80
2018-03-29T13:37:44.029Z,11.90
2018-03-29T13:40:11.997Z,11.90
2018-03-29T13:42:40.071Z,12.00
2018-03-29T13:45:08.038Z,12.10
2018-03-29T13:47:36.157Z,12.10
2018-03-29T13:50:04.804Z,12.20
2018-03-29T13:52:32.766Z,12.20
2018-03-29T13:55:00.701Z,12.20
2018-03-29T13:57:28.806Z,12.30
2018-03-29T13:59:56.781Z,12.30
2018-03-29T14:02:24.847Z,12.30
2018-03-29T14:04:52.762Z,12.30
2018-03-29T14:07:21.590Z,12.40
2018-03-29T14:09:49.491Z,12.40
2018-03-29T14:12:18.877Z,12.50
2018-03-29T14:14:46.934Z,12.50
2018-03-29T14:17:15.608Z,12.50
2018-03-29T14:19:43.498Z,12.50
2018-03-29T14:22:11.415Z,12.50
2018-03-29T14:24:40.055Z,12.50
2018-03-29T14:27:08.087Z,12.50
2018-03-29T14:29:36.014Z,12.50
2018-03-29T14:32:03.963Z,12.50
2018-03-29T14:34:31.937Z,12.40
2018-03-29T14:37:00.062Z,12.40
2018-03-29T14:39:28.120Z,12.30
2018-03-29T14:41:56.141Z,12.20
2018-03-29T14:44:25.423Z,12.20
2018-03-29T14:46:53.353Z,12.10
2018-03-29T14:49:21.264Z,12.00
2018-03-29T14:51:49.353Z,11.90
2018-03-29T14:54:17.655Z,11.90
2018-03-29T14:56:46.319Z,11.70
2018-03-29T14:59:14.162Z,11.70
2018-03-29T15:01:41.927Z,11.60
2018-03-29T15:04:09.720Z,11.60
2018-03-29T15:06:37.581Z,11.50
2018-03-29T15:09:05.434Z,11.40
2018-03-29T15:11:33.243Z,11.40
2018-03-29T15:14:01.803Z,11.30
2018-03-29T15:16:29.663Z,11.20
2018-03-29T15:18:57.598Z,11.20
2018-03-29T15:21:25.661Z,11.20
2018-03-29T15:23:53.846Z,11.10
2018-03-29T15:26:22.389Z,11.10
2018-03-29T15:28:50.442Z,11.10
2018-03-29T15:31:18.334Z,11.00
2018-03-29T15:33:47.138Z,10.90
2018-03-29T15:36:15.368Z,10.90
2018-03-29T15:38:43.227Z,10.90
2018-03-29T15:41:11.096Z,10.80
2018-03-29T15:43:39.061Z,10.80
2018-03-29T15:46:06.950Z,10.70
2018-03-29T15:48:34.839Z,10.70
2018-03-29T15:51:03.567Z,10.60
2018-03-29T15:53:31.374Z,10.60
2018-03-29T15:56:00.148Z,10.60
2018-03-29T15:58:28.147Z,10.60
2018-03-29T16:00:56.765Z,10.50
2018-03-29T16:03:24.805Z,10.50
2018-03-29T16:05:53.947Z,10.40
2018-03-29T16:08:21.829Z,10.40
2018-03-29T16:10:49.650Z,10.40
2018-03-29T16:13:17.684Z,10.30
2018-03-29T16:15:45.534Z,10.30
2018-03-29T16:18:13.391Z,10.30
2018-03-29T16:20:41.248Z,10.30
2018-03-29T16:23:09.219Z,10.30
2018-03-29T16:25:37.048Z,10.30
2018-03-29T16:28:04.968Z,10.20
2018-03-29T16:30:32.911Z,10.20
2018-03-29T16:33:00.907Z,10.00
2018-03-29T16:35:29.070Z,9.90
2018-03-29T16:37:56.897Z,9.90
2018-03-29T16:40:25.632Z,9.80
2018-03-29T16:42:54.008Z,9.80
2018-03-29T16:45:21.803Z,9.90
2018-03-29T16:47:50.874Z,9.80
2018-03-29T16:50:18.850Z,9.80
2018-03-29T16:52:46.817Z,9.80
2018-03-29T16:55:14.692Z,9.80
2018-03-29T16:57:42.646Z,9.80
2018-03-29T17:00:10.552Z,9.70
2018-03-29T17:02:39.300Z,9.70
2018-03-29T17:05:07.293Z,9.60
2018-03-29T17:07:36.099Z,9.60
2018-03-29T17:10:04.702Z,9.60
2018-03-29T17:12:32.608Z,9.60
2018-03-29T17:15:00.629Z,9.50
2018-03-29T17:17:29.222Z,9.50
2018-03-29T17:19:57.139Z,9.50
2018-03-29T17:22:25.002Z,9.50
2018-03-29T17:24:52.824Z,9.50
2018-03-29T17:27:20.756Z,9.50
2018-03-29T17:29:48.594Z,9.50
2018-03-29T17:32:16.360Z,9.50
2018-03-29T17:34:44.261Z,9.40
2018-03-29T17:37:12.893Z,9.30
2018-03-29T17:39:40.792Z,9.30
2018-03-29T17:42:08.784Z,9.20
2018-03-29T17:44:37.449Z,9.20
2018-03-29T17:47:05.290Z,9.20
2018-03-29T17:49:33.104Z,9.20
2018-03-29T17:52:01.025Z,9.20
2018-03-29T17:54:28.922Z,9.20
2018-03-29T17:56:56.806Z,9.20
2018-03-29T17:59:24.678Z,9.10
2018-03-29T18:01:53.239Z,9.10
2018-03-29T18:04:21.084Z,9.10
2018-03-29T18:06:48.991Z,9.10
2018-03-29T18:09:16.723Z,9.10
2018-03-29T18:11:44.574Z,9.10
2018-03-29T18:14:12.359Z,9.10
2018-03-29T18:16:40.092Z,9.10
2018-03-29T18:19:07.877Z,9.10
2018-03-29T18:21:35.732Z,9.10
2018-03-29T18:24:03.634Z,9.10
2018-03-29T18:26:31.425Z,9.00
2018-03-29T18:28:59.960Z,9.00
2018-03-29T18:31:27.834Z,9.00
2018-03-29T18:33:55.715Z,9.00
2018-03-29T18:36:23.554Z,9.00
2018-03-29T18:38:51.406Z,9.00
2018-03-29T18:41:19.339Z,9.00
2018-03-29T18:43:48.297Z,9.10
2018-03-29T18:46:16.275Z,9.10
2018-03-29T18:48:44.120Z,9.10
2018-03-29T18:51:12.119Z,9.00
2018-03-29T18:53:39.932Z,9.00
2018-03-29T18:56:07.805Z,9.00
2018-03-29T18:58:35.607Z,8.90
2018-03-29T19:01:03.420Z,8.90
2018-03-29T19:03:31.427Z,9.00
2018-03-29T19:05:59.203Z,8.90
2018-03-29T19:11:01.972Z,8.90
2018-03-29T19:13:29.737Z,8.90
2018-03-29T19:15:57.535Z,8.90
2018-03-29T19:18:25.458Z,8.90
2018-03-29T19:20:53.301Z,8.80
2018-03-29T19:23:21.979Z,8.80
2018-03-29T19:25:50.659Z,8.80
2018-03-29T19:28:18.496Z,8.80
2018-03-29T19:30:46.320Z,8.80
2018-03-29T19:33:14.161Z,8.80
2018-03-29T19:35:41.966Z,8.70
2018-03-29T19:38:09.708Z,8.70
2018-03-29T19:40:39.709Z,8.70
2018-03-29T19:43:07.566Z,8.70
2018-03-29T19:45:35.376Z,8.70
2018-03-29T19:48:05.441Z,8.70
2018-03-29T19:50:33.327Z,8.70
2018-03-29T19:53:01.212Z,8.70
2018-03-29T19:55:29.615Z,8.70
2018-03-29T19:57:57.636Z,8.70
2018-03-29T20:00:25.380Z,8.70
2018-03-29T20:02:53.263Z,8.70
2018-03-29T20:05:21.183Z,8.70
2018-03-29T20:07:49.008Z,8.60
2018-03-29T20:10:17.712Z,8.60
2018-03-29T20:12:46.229Z,8.70
2018-03-29T20:15:14.165Z,8.60
2018-03-29T20:17:42.823Z,8.60
2018-03-29T20:20:10.690Z,8.60
2018-03-29T20:22:38.582Z,8.60
2018-03-29T20:25:07.172Z,8.50
2018-03-29T20:27:34.983Z,8.50
2018-03-29T20:30:02.900Z,8.50
2018-03-29T20:32:31.459Z,8.50
2018-03-29T20:34:59.373Z,8.50
2018-03-29T20:37:27.246Z,8.50
2018-03-29T20:39:55.123Z,8.40
2018-03-29T20:42:22.920Z,8.40
2018-03-29T20:44:50.756Z,8.40
2018-03-29T20:47:18.578Z,8.40
2018-03-29T20:49:47.243Z,8.40
2018-03-29T20:52:15.031Z,8.40
2018-03-29T20:54:43.610Z,8.30
2018-03-29T20:57:12.314Z,8.40
2018-03-29T20:59:40.161Z,8.30
2018-03-29T21:02:08.809Z,8.30
2018-03-29T21:04:36.703Z,8.30
2018-03-29T21:07:05.380Z,8.20
2018-03-29T21:09:33.154Z,8.20
2018-03-29T21:12:01.082Z,8.20
2018-03-29T21:14:28.908Z,8.20
2018-03-29T21:16:56.773Z,8.20
2018-03-29T21:19:25.465Z,8.20
2018-03-29T21:21:54.101Z,8.20
2018-03-29T21:24:21.890Z,8.20
2018-03-29T21:26:49.774Z,8.10
2018-03-29T21:29:18.323Z,8.10
2018-03-29T21:31:46.132Z,8.10
2018-03-29T21:34:14.776Z,8.10
2018-03-29T21:36:43.305Z,8.20
2018-03-29T21:39:11.066Z,8.10
2018-03-29T21:41:38.880Z,8.10
2018-03-29T21:44:06.664Z,8.10
2018-03-29T21:46:34.824Z,8.00
2018-03-29T21:49:02.683Z,8.10
2018-03-29T21:51:30.559Z,8.10
2018-03-29T21:53:58.876Z,8.00
2018-03-29T21:56:26.858Z,8.00
2018-03-29T21:58:54.748Z,8.00
2018-03-29T22:01:22.525Z,8.00
2018-03-29T22:03:50.415Z,8.00
2018-03-29T22:06:18.226Z,8.00
2018-03-29T22:08:46.026Z,8.10
2018-03-29T22:11:13.829Z,8.10
2018-03-29T22:13:49.446Z,8.10
2018-03-29T22:16:17.221Z,8.10
2018-03-29T22:18:45.123Z,8.10
2018-03-29T22:21:14.663Z,8.10
2018-03-29T22:23:42.533Z,8.10
2018-03-29T22:26:10.331Z,8.10
2018-03-29T22:28:38.135Z,8.10
2018-03-29T22:31:05.994Z,8.10
2018-03-29T22:33:34.569Z,8.10
2018-03-29T22:36:03.092Z,8.10
2018-03-29T22:38:30.938Z,8.00
2018-03-29T22:40:58.696Z,8.10
2018-03-29T22:43:26.440Z,8.10
2018-03-29T22:45:55.144Z,8.10
2018-03-29T22:48:22.994Z,8.00
2018-03-29T22:50:51.616Z,8.00
2018-03-29T22:53:19.492Z,8.00
2018-03-29T22:55:47.351Z,8.10
2018-03-29T23:00:49.963Z,8.00
2018-03-29T23:03:17.784Z,8.00
2018-03-29T23:05:46.360Z,8.00
2018-03-29T23:08:14.867Z,8.00
2018-03-29T23:10:42.579Z,8.00
2018-03-29T23:13:10.362Z,8.00
2018-03-29T23:15:38.998Z,7.90
2018-03-29T23:18:06.783Z,7.90
2018-03-29T23:20:34.548Z,7.90
2018-03-29T23:23:02.326Z,7.90
2018-03-29T23:25:30.072Z,7.90
2018-03-29T23:27:58.151Z,7.90
2018-03-29T23:30:26.063Z,7.90
2018-03-29T23:32:54.550Z,7.90
2018-03-29T23:35:22.303Z,7.90
2018-03-29T23:37:50.980Z,7.90
2018-03-29T23:40:19.491Z,7.80
2018-03-29T23:42:47.323Z,7.80
2018-03-29T23:45:16.091Z,7.80
2018-03-29T23:47:43.915Z,7.80
2018-03-29T23:50:12.291Z,7.80
2018-03-29T23:52:40.043Z,7.70
2018-03-29T23:55:07.844Z,7.70
2018-03-29T23:57:36.683Z,7.70
